sensor_id;sensor_type;location;lat;lon;timestamp;P1;durP1;ratioP1;P2;durP2;ratioP2
5303;SDS011;2674;49.722;10.892;2023-03-05T00:01:38;27.53;;;13.73;;
5303;SDS011;2674;49.722;10.892;2023-03-05T00:04:04;31.10;;;13.73;;
5303;SDS011;2674;49.722;10.892;2023-03-05T00:06:34;33.80;;;13.57;;
5303;SDS011;2674;49.722;10.892;2023-03-05T00:09:00;31.60;;;14.83;;
5303;SDS011;2674;49.722;10.892;2023-03-05T00:11:27;33.87;;;13.77;;
5303;SDS011;2674;49.722;10.892;2023-03-05T00:13:54;32.00;;;13.13;;
5303;SDS011;2674;49.722;10.892;2023-03-05T00:16:21;25.90;;;12.80;;
5303;SDS011;2674;49.722;10.892;2023-03-05T00:18:50;27.87;;;14.00;;
5303;SDS011;2674;49.722;10.892;2023-03-05T00:21:18;29.27;;;13.10;;
5303;SDS011;2674;49.722;10.892;2023-03-05T00:23:52;32.30;;;13.30;;
5303;SDS011;2674;49.722;10.892;2023-03-05T00:26:19;32.43;;;13.07;;
5303;SDS011;2674;49.722;10.892;2023-03-05T00:28:46;34.10;;;13.30;;
5303;SDS011;2674;49.722;10.892;2023-03-05T00:31:14;28.97;;;12.53;;
5303;SDS011;2674;49.722;10.892;2023-03-05T00:33:41;29.77;;;12.60;;
5303;SDS011;2674;49.722;10.892;2023-03-05T00:36:08;35.30;;;13.90;;
5303;SDS011;2674;49.722;10.892;2023-03-05T00:38:34;24.87;;;13.07;;
5303;SDS011;2674;49.722;10.892;2023-03-05T00:41:00;29.70;;;14.30;;
5303;SDS011;2674;49.722;10.892;2023-03-05T00:43:26;30.70;;;13.37;;
5303;SDS011;2674;49.722;10.892;2023-03-05T00:45:53;39.50;;;14.47;;
5303;SDS011;2674;49.722;10.892;2023-03-05T00:48:18;30.90;;;14.00;;
5303;SDS011;2674;49.722;10.892;2023-03-05T00:50:46;25.50;;;11.80;;
5303;SDS011;2674;49.722;10.892;2023-03-05T00:53:12;32.73;;;15.33;;
5303;SDS011;2674;49.722;10.892;2023-03-05T00:55:38;27.80;;;13.60;;
5303;SDS011;2674;49.722;10.892;2023-03-05T00:58:04;32.80;;;13.93;;
5303;SDS011;2674;49.722;10.892;2023-03-05T01:00:29;37.30;;;14.90;;
5303;SDS011;2674;49.722;10.892;2023-03-05T01:02:55;29.27;;;13.10;;
5303;SDS011;2674;49.722;10.892;2023-03-05T01:05:21;37.43;;;14.90;;
5303;SDS011;2674;49.722;10.892;2023-03-05T01:07:47;27.70;;;12.63;;
5303;SDS011;2674;49.722;10.892;2023-03-05T01:10:15;32.03;;;13.57;;
5303;SDS011;2674;49.722;10.892;2023-03-05T01:12:41;28.43;;;14.37;;
5303;SDS011;2674;49.722;10.892;2023-03-05T01:15:07;35.33;;;13.60;;
5303;SDS011;2674;49.722;10.892;2023-03-05T01:17:33;39.93;;;15.27;;
5303;SDS011;2674;49.722;10.892;2023-03-05T01:19:59;31.70;;;13.77;;
5303;SDS011;2674;49.722;10.892;2023-03-05T01:22:25;35.43;;;15.07;;
5303;SDS011;2674;49.722;10.892;2023-03-05T01:24:50;27.67;;;12.37;;
5303;SDS011;2674;49.722;10.892;2023-03-05T01:27:16;37.17;;;14.00;;
5303;SDS011;2674;49.722;10.892;2023-03-05T01:29:42;31.83;;;13.43;;
5303;SDS011;2674;49.722;10.892;2023-03-05T01:32:08;31.43;;;14.80;;
5303;SDS011;2674;49.722;10.892;2023-03-05T01:34:35;28.00;;;13.77;;
5303;SDS011;2674;49.722;10.892;2023-03-05T01:37:03;24.10;;;11.87;;
5303;SDS011;2674;49.722;10.892;2023-03-05T01:39:29;31.20;;;15.03;;
5303;SDS011;2674;49.722;10.892;2023-03-05T01:41:55;31.20;;;12.47;;
5303;SDS011;2674;49.722;10.892;2023-03-05T01:44:22;29.70;;;13.17;;
5303;SDS011;2674;49.722;10.892;2023-03-05T01:46:51;25.90;;;12.27;;
5303;SDS011;2674;49.722;10.892;2023-03-05T01:54:21;26.57;;;12.93;;
5303;SDS011;2674;49.722;10.892;2023-03-05T01:56:52;30.90;;;12.83;;
5303;SDS011;2674;49.722;10.892;2023-03-05T01:59:21;28.07;;;14.17;;
5303;SDS011;2674;49.722;10.892;2023-03-05T02:01:50;27.80;;;12.77;;
5303;SDS011;2674;49.722;10.892;2023-03-05T02:04:18;26.43;;;13.17;;
5303;SDS011;2674;49.722;10.892;2023-03-05T02:06:47;31.17;;;13.70;;
5303;SDS011;2674;49.722;10.892;2023-03-05T02:09:14;40.70;;;12.17;;
5303;SDS011;2674;49.722;10.892;2023-03-05T02:11:40;21.93;;;11.47;;
5303;SDS011;2674;49.722;10.892;2023-03-05T02:14:07;25.20;;;11.43;;
5303;SDS011;2674;49.722;10.892;2023-03-05T02:16:34;25.90;;;11.90;;
5303;SDS011;2674;49.722;10.892;2023-03-05T02:19:05;24.83;;;9.10;;
5303;SDS011;2674;49.722;10.892;2023-03-05T02:21:36;18.07;;;8.77;;
5303;SDS011;2674;49.722;10.892;2023-03-05T02:24:05;20.23;;;10.20;;
5303;SDS011;2674;49.722;10.892;2023-03-05T02:26:31;20.80;;;8.77;;
5303;SDS011;2674;49.722;10.892;2023-03-05T02:28:58;17.30;;;8.77;;
5303;SDS011;2674;49.722;10.892;2023-03-05T02:31:27;18.27;;;10.00;;
5303;SDS011;2674;49.722;10.892;2023-03-05T02:33:53;18.90;;;7.80;;
5303;SDS011;2674;49.722;10.892;2023-03-05T02:36:20;17.30;;;8.20;;
5303;SDS011;2674;49.722;10.892;2023-03-05T02:38:47;18.97;;;9.00;;
5303;SDS011;2674;49.722;10.892;2023-03-05T02:41:13;27.27;;;7.30;;
5303;SDS011;2674;49.722;10.892;2023-03-05T02:43:39;19.77;;;7.80;;
5303;SDS011;2674;49.722;10.892;2023-03-05T02:46:06;12.57;;;6.50;;
5303;SDS011;2674;49.722;10.892;2023-03-05T02:48:32;13.90;;;6.20;;
5303;SDS011;2674;49.722;10.892;2023-03-05T02:50:58;20.73;;;7.00;;
5303;SDS011;2674;49.722;10.892;2023-03-05T02:53:26;14.07;;;7.30;;
5303;SDS011;2674;49.722;10.892;2023-03-05T02:55:52;14.90;;;8.23;;
5303;SDS011;2674;49.722;10.892;2023-03-05T02:58:17;17.23;;;7.63;;
5303;SDS011;2674;49.722;10.892;2023-03-05T03:00:43;15.87;;;8.17;;
5303;SDS011;2674;49.722;10.892;2023-03-05T03:03:10;13.00;;;6.70;;
5303;SDS011;2674;49.722;10.892;2023-03-05T03:05:37;17.17;;;6.73;;
5303;SDS011;2674;49.722;10.892;2023-03-05T03:08:03;13.80;;;6.60;;
5303;SDS011;2674;49.722;10.892;2023-03-05T03:10:29;17.70;;;8.60;;
5303;SDS011;2674;49.722;10.892;2023-03-05T03:12:55;15.93;;;7.00;;
5303;SDS011;2674;49.722;10.892;2023-03-05T03:15:21;17.10;;;7.00;;
5303;SDS011;2674;49.722;10.892;2023-03-05T03:17:47;13.00;;;6.80;;
5303;SDS011;2674;49.722;10.892;2023-03-05T03:20:14;14.30;;;6.60;;
5303;SDS011;2674;49.722;10.892;2023-03-05T03:22:42;12.30;;;6.00;;
5303;SDS011;2674;49.722;10.892;2023-03-05T03:25:09;19.00;;;7.40;;
5303;SDS011;2674;49.722;10.892;2023-03-05T03:27:38;21.90;;;8.70;;
5303;SDS011;2674;49.722;10.892;2023-03-05T03:30:04;13.50;;;7.33;;
5303;SDS011;2674;49.722;10.892;2023-03-05T03:32:31;16.43;;;7.93;;
5303;SDS011;2674;49.722;10.892;2023-03-05T03:34:57;15.60;;;8.20;;
5303;SDS011;2674;49.722;10.892;2023-03-05T03:37:23;18.70;;;8.57;;
5303;SDS011;2674;49.722;10.892;2023-03-05T03:39:49;17.70;;;8.27;;
5303;SDS011;2674;49.722;10.892;2023-03-05T03:42:16;20.80;;;10.37;;
5303;SDS011;2674;49.722;10.892;2023-03-05T03:44:42;18.90;;;8.07;;
5303;SDS011;2674;49.722;10.892;2023-03-05T03:47:08;19.70;;;9.60;;
5303;SDS011;2674;49.722;10.892;2023-03-05T03:49:33;17.13;;;8.23;;
5303;SDS011;2674;49.722;10.892;2023-03-05T03:51:59;20.53;;;8.73;;
5303;SDS011;2674;49.722;10.892;2023-03-05T03:54:25;21.27;;;10.00;;
5303;SDS011;2674;49.722;10.892;2023-03-05T03:56:51;21.93;;;9.17;;
5303;SDS011;2674;49.722;10.892;2023-03-05T03:59:17;20.80;;;10.10;;
5303;SDS011;2674;49.722;10.892;2023-03-05T04:01:43;21.60;;;10.80;;
5303;SDS011;2674;49.722;10.892;2023-03-05T04:04:09;19.13;;;9.47;;
5303;SDS011;2674;49.722;10.892;2023-03-05T04:06:36;19.90;;;9.40;;
5303;SDS011;2674;49.722;10.892;2023-03-05T04:09:03;23.50;;;9.17;;
5303;SDS011;2674;49.722;10.892;2023-03-05T04:11:29;26.57;;;12.03;;
5303;SDS011;2674;49.722;10.892;2023-03-05T04:13:55;20.97;;;10.00;;
5303;SDS011;2674;49.722;10.892;2023-03-05T04:16:21;28.80;;;10.40;;
5303;SDS011;2674;49.722;10.892;2023-03-05T04:18:47;22.73;;;10.80;;
5303;SDS011;2674;49.722;10.892;2023-03-05T04:21:13;24.03;;;11.20;;
5303;SDS011;2674;49.722;10.892;2023-03-05T04:23:39;28.90;;;11.80;;
5303;SDS011;2674;49.722;10.892;2023-03-05T04:26:05;32.10;;;12.70;;
5303;SDS011;2674;49.722;10.892;2023-03-05T04:28:30;24.23;;;11.40;;
5303;SDS011;2674;49.722;10.892;2023-03-05T04:30:56;26.83;;;10.97;;
5303;SDS011;2674;49.722;10.892;2023-03-05T04:33:22;35.27;;;11.73;;
5303;SDS011;2674;49.722;10.892;2023-03-05T04:35:48;27.10;;;10.70;;
5303;SDS011;2674;49.722;10.892;2023-03-05T04:38:14;22.90;;;10.73;;
5303;SDS011;2674;49.722;10.892;2023-03-05T04:40:40;22.17;;;11.57;;
5303;SDS011;2674;49.722;10.892;2023-03-05T04:43:06;29.60;;;11.47;;
5303;SDS011;2674;49.722;10.892;2023-03-05T04:45:32;21.83;;;11.13;;
5303;SDS011;2674;49.722;10.892;2023-03-05T04:47:58;24.20;;;11.63;;
5303;SDS011;2674;49.722;10.892;2023-03-05T04:50:24;23.93;;;11.83;;
5303;SDS011;2674;49.722;10.892;2023-03-05T04:52:50;27.60;;;11.93;;
5303;SDS011;2674;49.722;10.892;2023-03-05T04:55:16;29.80;;;12.40;;
5303;SDS011;2674;49.722;10.892;2023-03-05T04:57:42;25.70;;;13.37;;
5303;SDS011;2674;49.722;10.892;2023-03-05T05:00:10;37.93;;;13.63;;
5303;SDS011;2674;49.722;10.892;2023-03-05T05:02:41;28.53;;;15.40;;
5303;SDS011;2674;49.722;10.892;2023-03-05T05:05:11;32.37;;;13.40;;
5303;SDS011;2674;49.722;10.892;2023-03-05T05:07:39;27.57;;;11.37;;
5303;SDS011;2674;49.722;10.892;2023-03-05T05:10:05;30.80;;;14.10;;
5303;SDS011;2674;49.722;10.892;2023-03-05T05:12:33;25.50;;;13.20;;
5303;SDS011;2674;49.722;10.892;2023-03-05T05:14:59;29.63;;;13.30;;
5303;SDS011;2674;49.722;10.892;2023-03-05T05:17:25;34.10;;;15.10;;
5303;SDS011;2674;49.722;10.892;2023-03-05T05:19:54;29.83;;;15.00;;
5303;SDS011;2674;49.722;10.892;2023-03-05T05:22:21;33.30;;;13.53;;
5303;SDS011;2674;49.722;10.892;2023-03-05T05:24:47;33.27;;;15.63;;
5303;SDS011;2674;49.722;10.892;2023-03-05T05:27:13;32.63;;;13.40;;
5303;SDS011;2674;49.722;10.892;2023-03-05T05:29:39;38.70;;;15.43;;
5303;SDS011;2674;49.722;10.892;2023-03-05T05:32:05;30.03;;;14.27;;
5303;SDS011;2674;49.722;10.892;2023-03-05T05:34:31;30.20;;;13.80;;
5303;SDS011;2674;49.722;10.892;2023-03-05T05:36:57;28.37;;;13.53;;
5303;SDS011;2674;49.722;10.892;2023-03-05T05:39:23;32.00;;;16.00;;
5303;SDS011;2674;49.722;10.892;2023-03-05T05:41:49;29.87;;;14.67;;
5303;SDS011;2674;49.722;10.892;2023-03-05T05:44:16;35.50;;;13.87;;
5303;SDS011;2674;49.722;10.892;2023-03-05T05:46:42;31.07;;;14.23;;
5303;SDS011;2674;49.722;10.892;2023-03-05T05:49:08;28.47;;;13.83;;
5303;SDS011;2674;49.722;10.892;2023-03-05T05:51:34;35.40;;;12.60;;
5303;SDS011;2674;49.722;10.892;2023-03-05T05:54:00;37.87;;;15.10;;
5303;SDS011;2674;49.722;10.892;2023-03-05T05:56:26;33.83;;;13.57;;
5303;SDS011;2674;49.722;10.892;2023-03-05T05:58:51;29.50;;;13.60;;
5303;SDS011;2674;49.722;10.892;2023-03-05T06:01:25;32.07;;;15.17;;
5303;SDS011;2674;49.722;10.892;2023-03-05T06:03:53;35.40;;;14.43;;
5303;SDS011;2674;49.722;10.892;2023-03-05T06:06:21;35.30;;;16.60;;
5303;SDS011;2674;49.722;10.892;2023-03-05T06:08:48;25.13;;;13.23;;
5303;SDS011;2674;49.722;10.892;2023-03-05T06:11:14;24.70;;;11.10;;
5303;SDS011;2674;49.722;10.892;2023-03-05T06:13:41;22.70;;;11.27;;
5303;SDS011;2674;49.722;10.892;2023-03-05T06:16:09;15.67;;;7.03;;
5303;SDS011;2674;49.722;10.892;2023-03-05T06:18:37;15.50;;;6.43;;
5303;SDS011;2674;49.722;10.892;2023-03-05T06:21:07;13.33;;;6.77;;
5303;SDS011;2674;49.722;10.892;2023-03-05T06:23:36;14.20;;;5.93;;
5303;SDS011;2674;49.722;10.892;2023-03-05T06:26:03;12.60;;;7.20;;
5303;SDS011;2674;49.722;10.892;2023-03-05T06:28:30;12.23;;;6.10;;
5303;SDS011;2674;49.722;10.892;2023-03-05T06:31:03;19.70;;;5.23;;
5303;SDS011;2674;49.722;10.892;2023-03-05T06:33:34;17.53;;;6.80;;
5303;SDS011;2674;49.722;10.892;2023-03-05T06:36:04;20.27;;;6.40;;
5303;SDS011;2674;49.722;10.892;2023-03-05T06:38:31;11.53;;;5.80;;
5303;SDS011;2674;49.722;10.892;2023-03-05T06:41:00;9.83;;;5.13;;
5303;SDS011;2674;49.722;10.892;2023-03-05T06:43:33;13.00;;;5.63;;
5303;SDS011;2674;49.722;10.892;2023-03-05T06:46:03;10.40;;;4.50;;
5303;SDS011;2674;49.722;10.892;2023-03-05T06:48:29;23.40;;;6.93;;
5303;SDS011;2674;49.722;10.892;2023-03-05T06:50:55;14.57;;;6.00;;
5303;SDS011;2674;49.722;10.892;2023-03-05T06:53:22;18.10;;;5.63;;
5303;SDS011;2674;49.722;10.892;2023-03-05T06:55:49;10.80;;;5.23;;
5303;SDS011;2674;49.722;10.892;2023-03-05T06:58:15;13.43;;;5.47;;
5303;SDS011;2674;49.722;10.892;2023-03-05T07:00:42;12.90;;;5.83;;
5303;SDS011;2674;49.722;10.892;2023-03-05T07:03:09;10.07;;;5.63;;
5303;SDS011;2674;49.722;10.892;2023-03-05T07:05:41;11.67;;;6.53;;
5303;SDS011;2674;49.722;10.892;2023-03-05T07:08:08;13.23;;;6.07;;
5303;SDS011;2674;49.722;10.892;2023-03-05T07:10:41;17.03;;;5.17;;
5303;SDS011;2674;49.722;10.892;2023-03-05T07:13:09;10.70;;;5.70;;
5303;SDS011;2674;49.722;10.892;2023-03-05T07:15:38;15.33;;;5.97;;
5303;SDS011;2674;49.722;10.892;2023-03-05T07:18:05;10.87;;;4.80;;
5303;SDS011;2674;49.722;10.892;2023-03-05T07:20:34;13.23;;;5.93;;
5303;SDS011;2674;49.722;10.892;2023-03-05T07:23:01;11.90;;;6.10;;
5303;SDS011;2674;49.722;10.892;2023-03-05T07:25:28;17.77;;;5.90;;
5303;SDS011;2674;49.722;10.892;2023-03-05T07:27:54;9.30;;;6.43;;
5303;SDS011;2674;49.722;10.892;2023-03-05T07:30:20;9.80;;;4.80;;
5303;SDS011;2674;49.722;10.892;2023-03-05T07:32:46;8.47;;;4.07;;
5303;SDS011;2674;49.722;10.892;2023-03-05T07:35:12;12.73;;;4.90;;
5303;SDS011;2674;49.722;10.892;2023-03-05T07:37:38;10.83;;;6.00;;
5303;SDS011;2674;49.722;10.892;2023-03-05T07:40:04;8.20;;;4.13;;
5303;SDS011;2674;49.722;10.892;2023-03-05T07:42:31;7.03;;;4.90;;
5303;SDS011;2674;49.722;10.892;2023-03-05T07:44:58;8.97;;;3.80;;
5303;SDS011;2674;49.722;10.892;2023-03-05T07:47:23;19.07;;;4.30;;
5303;SDS011;2674;49.722;10.892;2023-03-05T07:49:49;8.57;;;4.73;;
5303;SDS011;2674;49.722;10.892;2023-03-05T07:52:15;9.90;;;5.30;;
5303;SDS011;2674;49.722;10.892;2023-03-05T07:54:41;11.50;;;5.60;;
5303;SDS011;2674;49.722;10.892;2023-03-05T07:57:08;13.03;;;4.37;;
5303;SDS011;2674;49.722;10.892;2023-03-05T07:59:37;20.60;;;5.03;;
5303;SDS011;2674;49.722;10.892;2023-03-05T08:02:03;10.00;;;4.80;;
5303;SDS011;2674;49.722;10.892;2023-03-05T08:04:29;6.97;;;4.20;;
5303;SDS011;2674;49.722;10.892;2023-03-05T08:06:56;16.97;;;3.87;;
5303;SDS011;2674;49.722;10.892;2023-03-05T08:09:23;8.50;;;3.80;;
5303;SDS011;2674;49.722;10.892;2023-03-05T08:11:48;9.30;;;4.07;;
5303;SDS011;2674;49.722;10.892;2023-03-05T08:14:14;10.17;;;4.23;;
5303;SDS011;2674;49.722;10.892;2023-03-05T08:16:40;16.97;;;4.90;;
5303;SDS011;2674;49.722;10.892;2023-03-05T08:19:06;10.00;;;3.30;;
5303;SDS011;2674;49.722;10.892;2023-03-05T08:21:33;12.93;;;4.37;;
5303;SDS011;2674;49.722;10.892;2023-03-05T08:24:01;15.20;;;4.80;;
5303;SDS011;2674;49.722;10.892;2023-03-05T08:26:31;8.00;;;4.23;;
5303;SDS011;2674;49.722;10.892;2023-03-05T08:28:59;8.50;;;3.67;;
5303;SDS011;2674;49.722;10.892;2023-03-05T08:31:26;10.57;;;3.90;;
5303;SDS011;2674;49.722;10.892;2023-03-05T08:33:54;10.83;;;3.90;;
5303;SDS011;2674;49.722;10.892;2023-03-05T08:36:21;8.07;;;2.90;;
5303;SDS011;2674;49.722;10.892;2023-03-05T08:38:47;3.37;;;2.37;;
5303;SDS011;2674;49.722;10.892;2023-03-05T08:41:15;5.80;;;3.40;;
5303;SDS011;2674;49.722;10.892;2023-03-05T08:43:41;5.83;;;2.73;;
5303;SDS011;2674;49.722;10.892;2023-03-05T08:46:09;3.03;;;2.20;;
5303;SDS011;2674;49.722;10.892;2023-03-05T08:48:38;3.07;;;2.37;;
5303;SDS011;2674;49.722;10.892;2023-03-05T08:51:14;2.97;;;2.23;;
5303;SDS011;2674;49.722;10.892;2023-03-05T08:53:42;7.73;;;2.77;;
5303;SDS011;2674;49.722;10.892;2023-03-05T08:56:09;6.33;;;2.40;;
5303;SDS011;2674;49.722;10.892;2023-03-05T08:58:35;8.43;;;3.87;;
5303;SDS011;2674;49.722;10.892;2023-03-05T09:01:02;5.83;;;3.50;;
5303;SDS011;2674;49.722;10.892;2023-03-05T09:03:28;3.57;;;2.80;;
5303;SDS011;2674;49.722;10.892;2023-03-05T09:06:02;3.90;;;2.50;;
5303;SDS011;2674;49.722;10.892;2023-03-05T09:08:30;4.40;;;2.37;;
5303;SDS011;2674;49.722;10.892;2023-03-05T09:10:56;4.53;;;2.20;;
5303;SDS011;2674;49.722;10.892;2023-03-05T09:13:22;3.57;;;2.70;;
5303;SDS011;2674;49.722;10.892;2023-03-05T09:15:55;6.87;;;4.37;;
5303;SDS011;2674;49.722;10.892;2023-03-05T09:18:25;4.53;;;3.00;;
5303;SDS011;2674;49.722;10.892;2023-03-05T09:20:51;8.60;;;2.80;;
5303;SDS011;2674;49.722;10.892;2023-03-05T09:23:18;6.30;;;3.27;;
5303;SDS011;2674;49.722;10.892;2023-03-05T09:25:44;4.73;;;2.60;;
5303;SDS011;2674;49.722;10.892;2023-03-05T09:28:10;6.30;;;3.40;;
5303;SDS011;2674;49.722;10.892;2023-03-05T09:30:36;3.50;;;2.90;;
5303;SDS011;2674;49.722;10.892;2023-03-05T09:33:02;8.90;;;3.60;;
5303;SDS011;2674;49.722;10.892;2023-03-05T09:35:29;4.77;;;2.93;;
5303;SDS011;2674;49.722;10.892;2023-03-05T09:37:59;7.20;;;3.13;;
5303;SDS011;2674;49.722;10.892;2023-03-05T09:40:25;8.10;;;3.27;;
5303;SDS011;2674;49.722;10.892;2023-03-05T09:48:52;2.73;;;2.20;;
5303;SDS011;2674;49.722;10.892;2023-03-05T09:51:38;3.57;;;1.57;;
5303;SDS011;2674;49.722;10.892;2023-03-05T09:54:11;4.37;;;1.57;;
5303;SDS011;2674;49.722;10.892;2023-03-05T09:56:42;4.53;;;2.53;;
5303;SDS011;2674;49.722;10.892;2023-03-05T10:01:55;3.77;;;1.80;;
5303;SDS011;2674;49.722;10.892;2023-03-05T10:07:15;4.60;;;2.20;;
5303;SDS011;2674;49.722;10.892;2023-03-05T10:12:24;10.70;;;1.83;;
5303;SDS011;2674;49.722;10.892;2023-03-05T10:14:57;3.90;;;2.13;;
5303;SDS011;2674;49.722;10.892;2023-03-05T10:21:29;3.10;;;1.87;;
5303;SDS011;2674;49.722;10.892;2023-03-05T10:29:34;4.73;;;2.03;;
5303;SDS011;2674;49.722;10.892;2023-03-05T10:35:43;4.07;;;1.90;;
5303;SDS011;2674;49.722;10.892;2023-03-05T10:38:34;1.80;;;1.60;;
5303;SDS011;2674;49.722;10.892;2023-03-05T10:46:33;2.10;;;1.90;;
5303;SDS011;2674;49.722;10.892;2023-03-05T10:49:04;3.17;;;2.10;;
5303;SDS011;2674;49.722;10.892;2023-03-05T10:54:32;3.00;;;2.13;;
5303;SDS011;2674;49.722;10.892;2023-03-05T10:57:19;2.50;;;1.43;;
5303;SDS011;2674;49.722;10.892;2023-03-05T11:02:14;1.93;;;1.70;;
5303;SDS011;2674;49.722;10.892;2023-03-05T11:04:40;3.23;;;1.57;;
5303;SDS011;2674;49.722;10.892;2023-03-05T11:07:12;2.23;;;1.73;;
5303;SDS011;2674;49.722;10.892;2023-03-05T11:12:27;2.97;;;1.63;;
5303;SDS011;2674;49.722;10.892;2023-03-05T11:15:27;2.40;;;1.43;;
5303;SDS011;2674;49.722;10.892;2023-03-05T11:18:05;3.70;;;1.83;;
5303;SDS011;2674;49.722;10.892;2023-03-05T11:20:40;2.37;;;1.40;;
5303;SDS011;2674;49.722;10.892;2023-03-05T11:23:17;2.67;;;1.80;;
5303;SDS011;2674;49.722;10.892;2023-03-05T11:25:54;2.00;;;1.50;;
5303;SDS011;2674;49.722;10.892;2023-03-05T11:39:21;3.97;;;1.60;;
5303;SDS011;2674;49.722;10.892;2023-03-05T11:52:45;3.17;;;1.60;;
5303;SDS011;2674;49.722;10.892;2023-03-05T11:55:20;2.00;;;1.90;;
5303;SDS011;2674;49.722;10.892;2023-03-05T12:00:33;1.30;;;1.20;;
5303;SDS011;2674;49.722;10.892;2023-03-05T12:03:03;1.60;;;1.50;;
5303;SDS011;2674;49.722;10.892;2023-03-05T12:05:35;4.30;;;1.20;;
5303;SDS011;2674;49.722;10.892;2023-03-05T12:08:05;1.33;;;1.23;;
5303;SDS011;2674;49.722;10.892;2023-03-05T12:10:37;3.93;;;1.50;;
5303;SDS011;2674;49.722;10.892;2023-03-05T12:13:05;2.93;;;2.30;;
5303;SDS011;2674;49.722;10.892;2023-03-05T12:15:49;1.93;;;1.43;;
5303;SDS011;2674;49.722;10.892;2023-03-05T12:18:31;3.33;;;1.50;;
5303;SDS011;2674;49.722;10.892;2023-03-05T12:23:52;2.47;;;1.70;;
5303;SDS011;2674;49.722;10.892;2023-03-05T12:26:52;3.50;;;2.07;;
5303;SDS011;2674;49.722;10.892;2023-03-05T12:35:00;5.23;;;1.80;;
5303;SDS011;2674;49.722;10.892;2023-03-05T12:40:01;2.80;;;1.70;;
5303;SDS011;2674;49.722;10.892;2023-03-05T12:48:32;4.20;;;2.10;;
5303;SDS011;2674;49.722;10.892;2023-03-05T12:58:14;2.33;;;1.70;;
5303;SDS011;2674;49.722;10.892;2023-03-05T13:03:28;4.07;;;1.83;;
5303;SDS011;2674;49.722;10.892;2023-03-05T13:05:57;5.10;;;2.60;;
5303;SDS011;2674;49.722;10.892;2023-03-05T13:08:29;6.87;;;3.20;;
5303;SDS011;2674;49.722;10.892;2023-03-05T13:13:25;3.13;;;2.80;;
5303;SDS011;2674;49.722;10.892;2023-03-05T13:15:52;2.00;;;1.83;;
5303;SDS011;2674;49.722;10.892;2023-03-05T13:18:28;4.53;;;2.40;;
5303;SDS011;2674;49.722;10.892;2023-03-05T13:23:31;1.87;;;1.70;;
5303;SDS011;2674;49.722;10.892;2023-03-05T13:29:04;3.57;;;2.47;;
5303;SDS011;2674;49.722;10.892;2023-03-05T13:31:49;3.23;;;2.53;;
5303;SDS011;2674;49.722;10.892;2023-03-05T13:34:23;3.23;;;1.97;;
5303;SDS011;2674;49.722;10.892;2023-03-05T13:36:55;3.20;;;2.17;;
5303;SDS011;2674;49.722;10.892;2023-03-05T13:40:00;3.40;;;2.57;;
5303;SDS011;2674;49.722;10.892;2023-03-05T13:42:32;2.63;;;2.40;;
5303;SDS011;2674;49.722;10.892;2023-03-05T13:45:17;4.23;;;3.00;;
5303;SDS011;2674;49.722;10.892;2023-03-05T13:47:58;4.83;;;2.60;;
5303;SDS011;2674;49.722;10.892;2023-03-05T13:50:30;6.57;;;3.50;;
5303;SDS011;2674;49.722;10.892;2023-03-05T13:53:14;3.63;;;2.33;;
5303;SDS011;2674;49.722;10.892;2023-03-05T13:55:48;4.50;;;2.70;;
5303;SDS011;2674;49.722;10.892;2023-03-05T13:59:01;1.60;;;1.50;;
5303;SDS011;2674;49.722;10.892;2023-03-05T14:01:26;2.83;;;2.20;;
5303;SDS011;2674;49.722;10.892;2023-03-05T14:07:00;2.60;;;2.20;;
5303;SDS011;2674;49.722;10.892;2023-03-05T14:12:05;4.27;;;2.83;;
5303;SDS011;2674;49.722;10.892;2023-03-05T14:14:43;4.73;;;2.60;;
5303;SDS011;2674;49.722;10.892;2023-03-05T14:17:27;3.13;;;2.23;;
5303;SDS011;2674;49.722;10.892;2023-03-05T14:20:07;3.70;;;1.93;;
5303;SDS011;2674;49.722;10.892;2023-03-05T14:22:44;5.77;;;2.30;;
5303;SDS011;2674;49.722;10.892;2023-03-05T14:30:49;13.60;;;7.60;;
5303;SDS011;2674;49.722;10.892;2023-03-05T14:33:23;3.00;;;2.30;;
5303;SDS011;2674;49.722;10.892;2023-03-05T14:35:54;6.03;;;3.00;;
5303;SDS011;2674;49.722;10.892;2023-03-05T14:38:23;7.60;;;3.67;;
5303;SDS011;2674;49.722;10.892;2023-03-05T14:40:57;4.50;;;2.47;;
5303;SDS011;2674;49.722;10.892;2023-03-05T14:43:42;3.57;;;2.67;;
5303;SDS011;2674;49.722;10.892;2023-03-05T14:46:08;5.00;;;2.90;;
5303;SDS011;2674;49.722;10.892;2023-03-05T14:48:34;4.73;;;3.07;;
5303;SDS011;2674;49.722;10.892;2023-03-05T14:51:00;2.70;;;2.20;;
5303;SDS011;2674;49.722;10.892;2023-03-05T14:53:31;3.27;;;2.97;;
5303;SDS011;2674;49.722;10.892;2023-03-05T14:56:24;7.00;;;4.80;;
5303;SDS011;2674;49.722;10.892;2023-03-05T14:58:52;8.30;;;5.20;;
5303;SDS011;2674;49.722;10.892;2023-03-05T15:01:18;5.87;;;4.17;;
5303;SDS011;2674;49.722;10.892;2023-03-05T15:03:45;5.33;;;4.40;;
5303;SDS011;2674;49.722;10.892;2023-03-05T15:06:20;7.80;;;4.33;;
5303;SDS011;2674;49.722;10.892;2023-03-05T15:08:54;12.80;;;6.40;;
5303;SDS011;2674;49.722;10.892;2023-03-05T15:11:20;12.83;;;7.13;;
5303;SDS011;2674;49.722;10.892;2023-03-05T15:13:47;8.53;;;5.37;;
5303;SDS011;2674;49.722;10.892;2023-03-05T15:16:16;11.70;;;7.50;;
5303;SDS011;2674;49.722;10.892;2023-03-05T15:18:44;12.53;;;5.67;;
5303;SDS011;2674;49.722;10.892;2023-03-05T15:21:10;10.93;;;6.63;;
5303;SDS011;2674;49.722;10.892;2023-03-05T15:23:35;15.00;;;7.60;;
5303;SDS011;2674;49.722;10.892;2023-03-05T15:26:03;15.90;;;7.40;;
5303;SDS011;2674;49.722;10.892;2023-03-05T15:28:34;12.60;;;5.00;;
5303;SDS011;2674;49.722;10.892;2023-03-05T15:31:04;12.23;;;5.67;;
5303;SDS011;2674;49.722;10.892;2023-03-05T15:33:41;3.63;;;3.33;;
5303;SDS011;2674;49.722;10.892;2023-03-05T15:36:19;4.43;;;3.20;;
5303;SDS011;2674;49.722;10.892;2023-03-05T15:38:46;11.00;;;3.70;;
5303;SDS011;2674;49.722;10.892;2023-03-05T15:41:13;4.47;;;3.30;;
5303;SDS011;2674;49.722;10.892;2023-03-05T15:43:39;9.23;;;3.53;;
5303;SDS011;2674;49.722;10.892;2023-03-05T15:46:05;4.07;;;3.67;;
5303;SDS011;2674;49.722;10.892;2023-03-05T15:48:31;5.43;;;3.47;;
5303;SDS011;2674;49.722;10.892;2023-03-05T15:50:57;7.20;;;3.47;;
5303;SDS011;2674;49.722;10.892;2023-03-05T15:53:23;7.73;;;3.77;;
5303;SDS011;2674;49.722;10.892;2023-03-05T15:55:49;12.97;;;4.83;;
5303;SDS011;2674;49.722;10.892;2023-03-05T15:58:15;10.70;;;5.80;;
5303;SDS011;2674;49.722;10.892;2023-03-05T16:00:41;6.83;;;4.20;;
5303;SDS011;2674;49.722;10.892;2023-03-05T16:03:08;9.07;;;4.53;;
5303;SDS011;2674;49.722;10.892;2023-03-05T16:05:34;10.50;;;4.13;;
5303;SDS011;2674;49.722;10.892;2023-03-05T16:08:01;10.40;;;5.00;;
5303;SDS011;2674;49.722;10.892;2023-03-05T16:10:27;10.23;;;4.60;;
5303;SDS011;2674;49.722;10.892;2023-03-05T16:12:56;8.40;;;4.50;;
5303;SDS011;2674;49.722;10.892;2023-03-05T16:15:27;8.20;;;5.30;;
5303;SDS011;2674;49.722;10.892;2023-03-05T16:17:54;8.80;;;4.50;;
5303;SDS011;2674;49.722;10.892;2023-03-05T16:20:21;7.90;;;4.27;;
5303;SDS011;2674;49.722;10.892;2023-03-05T16:22:47;9.07;;;4.27;;
5303;SDS011;2674;49.722;10.892;2023-03-05T16:25:14;8.07;;;5.67;;
5303;SDS011;2674;49.722;10.892;2023-03-05T16:27:39;9.80;;;5.30;;
5303;SDS011;2674;49.722;10.892;2023-03-05T16:30:05;13.20;;;5.07;;
5303;SDS011;2674;49.722;10.892;2023-03-05T16:32:32;4.90;;;3.80;;
5303;SDS011;2674;49.722;10.892;2023-03-05T16:34:57;9.63;;;4.50;;
5303;SDS011;2674;49.722;10.892;2023-03-05T16:37:23;5.47;;;3.47;;
5303;SDS011;2674;49.722;10.892;2023-03-05T16:39:50;8.97;;;5.03;;
5303;SDS011;2674;49.722;10.892;2023-03-05T16:42:16;4.30;;;3.50;;
5303;SDS011;2674;49.722;10.892;2023-03-05T16:44:42;8.23;;;5.10;;
5303;SDS011;2674;49.722;10.892;2023-03-05T16:47:09;8.70;;;4.27;;
5303;SDS011;2674;49.722;10.892;2023-03-05T16:49:38;8.97;;;4.00;;
5303;SDS011;2674;49.722;10.892;2023-03-05T16:52:04;10.17;;;4.67;;
5303;SDS011;2674;49.722;10.892;2023-03-05T16:54:32;13.57;;;5.80;;